Time;durP1;ratioP1;P1;durP2;ratioP2;P2;SDS_P1;SDS_P2;PMS_P1;PMS_P2;Temp;Humidity;BMP_temperature;BMP_pressure;BME280_temperature;BME280_humidity;BME280_pressure;Samples;Min_cycle;Max_cycle;Signal;HPM_P1;HPM_P2
2020/12/09 00:01:47;;;;;;;97.78;42.13;;;2.60;99.90;;;;;;4983488;28;20054;-68
2020/12/09 00:04:13;;;;;;;96.35;41.67;;;2.60;99.90;;;;;;4984423;28;20129;-68
2020/12/09 00:06:40;;;;;;;97.13;41.65;;;2.60;99.90;;;;;;4984262;28;20034;-68
2020/12/09 00:09:07;;;;;;;93.10;40.35;;;2.60;99.90;;;;;;4981440;28;20033;-68
2020/12/09 00:11:33;;;;;;;97.78;40.80;;;2.60;99.90;;;;;;4981394;28;20839;-68
2020/12/09 00:13:59;;;;;;;95.70;41.58;;;2.60;99.90;;;;;;4981695;28;20627;-69
2020/12/09 00:16:25;;;;;;;98.72;41.05;;;2.60;99.90;;;;;;4982658;28;20133;-68
2020/12/09 00:18:51;;;;;;;92.80;40.47;;;2.70;99.90;;;;;;4981988;28;20034;-68
2020/12/09 00:21:21;;;;;;;93.60;42.38;;;2.70;99.90;;;;;;4981022;28;20410;-68
2020/12/09 00:23:51;;;;;;;93.63;39.90;;;2.70;99.90;;;;;;4981595;28;20073;-68
2020/12/09 00:26:22;;;;;;;104.43;42.33;;;2.80;99.90;;;;;;4982738;28;20046;-68
2020/12/09 00:28:49;;;;;;;91.07;41.88;;;2.80;99.90;;;;;;4982765;28;20041;-68
2020/12/09 00:31:15;;;;;;;93.80;41.33;;;2.80;99.90;;;;;;4980862;28;20045;-69
2020/12/09 00:33:42;;;;;;;93.35;40.90;;;2.90;99.90;;;;;;4982320;28;20491;-69
2020/12/09 00:36:08;;;;;;;93.53;42.33;;;2.80;99.90;;;;;;4983071;28;20022;-69
2020/12/09 00:38:34;;;;;;;101.47;41.15;;;2.80;99.90;;;;;;4982144;28;20093;-69
2020/12/09 00:41:00;;;;;;;98.70;42.30;;;2.80;99.90;;;;;;4982237;28;20073;-69
2020/12/09 00:43:25;;;;;;;99.00;41.15;;;2.80;99.90;;;;;;4983414;28;20038;-69
2020/12/09 00:45:51;;;;;;;101.15;41.65;;;2.90;99.90;;;;;;4983490;28;20042;-69
2020/12/09 00:48:17;;;;;;;91.63;40.88;;;2.90;99.90;;;;;;4981616;28;20037;-69
2020/12/09 00:50:43;;;;;;;92.63;40.78;;;2.90;99.90;;;;;;4981987;28;20963;-69
2020/12/09 00:53:08;;;;;;;91.40;40.53;;;2.80;99.90;;;;;;4981201;28;20026;-69
2020/12/09 00:55:34;;;;;;;101.65;39.45;;;2.80;99.90;;;;;;4983021;28;20038;-69
2020/12/09 00:58:01;;;;;;;99.68;41.97;;;2.80;99.90;;;;;;4979752;28;20032;-69
2020/12/09 01:00:27;;;;;;;101.97;41.78;;;2.80;99.90;;;;;;4973800;28;20038;-69
2020/12/09 01:03:05;;;;;;;91.85;39.42;;;2.80;99.90;;;;;;4981417;28;20568;-69
2020/12/09 01:05:31;;;;;;;93.05;39.35;;;2.80;99.90;;;;;;4981209;28;20032;-68
2020/12/09 01:07:57;;;;;;;91.57;40.63;;;2.80;99.90;;;;;;4982631;28;20056;-69
2020/12/09 01:10:22;;;;;;;92.20;41.47;;;2.80;99.90;;;;;;4983240;28;20514;-68
2020/12/09 01:12:48;;;;;;;92.05;40.38;;;2.70;99.90;;;;;;4982825;28;20042;-69
2020/12/09 01:15:14;;;;;;;88.07;40.42;;;2.70;99.90;;;;;;4982813;28;20040;-69
2020/12/09 01:17:39;;;;;;;93.45;41.45;;;2.80;99.90;;;;;;4981347;28;20065;-69
2020/12/09 01:20:05;;;;;;;95.82;39.78;;;2.80;99.90;;;;;;4982661;28;20039;-68
2020/12/09 01:22:32;;;;;;;86.72;39.58;;;2.80;99.90;;;;;;4982286;28;20105;-68
2020/12/09 01:24:58;;;;;;;92.35;40.83;;;2.80;99.90;;;;;;4980899;28;20864;-68
2020/12/09 01:27:24;;;;;;;93.78;38.90;;;2.80;99.90;;;;;;4961536;28;20034;-68
2020/12/09 01:29:51;;;;;;;92.45;40.65;;;2.70;99.90;;;;;;4977189;28;20034;-68
2020/12/09 01:32:16;;;;;;;95.35;41.35;;;2.70;99.90;;;;;;4982766;28;20173;-69
2020/12/09 01:34:42;;;;;;;98.18;41.60;;;2.70;99.90;;;;;;4982473;28;20500;-69
2020/12/09 01:37:08;;;;;;;97.03;41.47;;;2.70;99.90;;;;;;4982055;28;20045;-68
2020/12/09 01:39:33;;;;;;;96.95;41.00;;;2.70;99.90;;;;;;4982523;28;20038;-68
2020/12/09 01:41:59;;;;;;;88.10;38.25;;;2.70;99.90;;;;;;4964427;28;20052;-69
2020/12/09 01:44:25;;;;;;;92.47;39.45;;;2.70;99.90;;;;;;4982017;28;20775;-68
2020/12/09 01:46:53;;;;;;;92.70;40.35;;;2.70;99.90;;;;;;4980897;28;20026;-68
2020/12/09 01:49:19;;;;;;;92.50;40.63;;;2.80;99.90;;;;;;4982052;28;20085;-68
2020/12/09 01:51:46;;;;;;;91.68;39.20;;;2.80;99.90;;;;;;4980753;28;20502;-68
2020/12/09 01:54:11;;;;;;;91.05;40.30;;;2.80;99.90;;;;;;4980420;28;20411;-68
2020/12/09 01:56:37;;;;;;;99.35;41.25;;;2.70;99.90;;;;;;4980536;28;20776;-69
2020/12/09 01:59:03;;;;;;;92.03;41.17;;;2.80;99.90;;;;;;4980879;28;20555;-69
2020/12/09 02:01:30;;;;;;;90.35;40.90;;;2.80;99.90;;;;;;4982306;28;20109;-68
2020/12/09 02:03:55;;;;;;;98.90;41.90;;;2.80;99.90;;;;;;4980277;28;20046;-69
2020/12/09 02:06:21;;;;;;;89.35;40.40;;;2.70;99.90;;;;;;4981686;28;20038;-68
2020/12/09 02:08:47;;;;;;;93.78;40.15;;;2.70;99.90;;;;;;4980791;28;20042;-69
2020/12/09 02:11:13;;;;;;;90.10;40.78;;;2.70;99.90;;;;;;4982006;28;20037;-72
2020/12/09 02:13:46;;;;;;;99.32;40.42;;;2.70;99.90;;;;;;4982283;28;20472;-71
2020/12/09 02:16:13;;;;;;;92.72;40.75;;;2.70;99.90;;;;;;4982386;28;20139;-72
2020/12/09 02:18:42;;;;;;;95.30;41.55;;;2.80;99.90;;;;;;4980607;28;20073;-71
2020/12/09 02:21:08;;;;;;;91.38;40.47;;;2.80;99.90;;;;;;4981529;28;20109;-72
2020/12/09 02:23:34;;;;;;;92.80;39.88;;;2.80;99.90;;;;;;4981736;28;20310;-72
2020/12/09 02:26:00;;;;;;;99.05;40.97;;;2.70;99.90;;;;;;4981914;28;20550;-72
2020/12/09 02:28:25;;;;;;;97.20;40.28;;;2.80;99.90;;;;;;4981194;28;20031;-71
2020/12/09 02:30:51;;;;;;;96.65;43.05;;;2.70;99.90;;;;;;4981921;28;20066;-72
2020/12/09 02:33:17;;;;;;;95.78;42.65;;;2.70;99.90;;;;;;4981807;28;20035;-72
2020/12/09 02:35:43;;;;;;;103.38;42.38;;;2.70;99.90;;;;;;4981270;28;20922;-72
2020/12/09 02:38:10;;;;;;;94.97;41.88;;;2.70;99.90;;;;;;4980411;28;20074;-72
2020/12/09 02:40:37;;;;;;;95.68;41.47;;;2.70;99.90;;;;;;4980095;28;20410;-72
2020/12/09 02:43:03;;;;;;;100.68;40.85;;;2.70;99.90;;;;;;4967697;28;20072;-72
2020/12/09 02:45:28;;;;;;;100.25;42.55;;;2.80;99.90;;;;;;4985252;28;20026;-71
2020/12/09 02:47:54;;;;;;;103.20;44.35;;;2.80;99.90;;;;;;4985018;28;20782;-72
2020/12/09 02:50:20;;;;;;;98.78;40.70;;;2.70;99.90;;;;;;4985238;28;20034;-72
2020/12/09 02:52:46;;;;;;;97.57;41.47;;;2.70;99.90;;;;;;4983487;28;20044;-72
2020/12/09 02:55:11;;;;;;;95.75;42.95;;;2.80;99.90;;;;;;4985643;28;20449;-71
2020/12/09 02:57:37;;;;;;;96.32;42.70;;;2.80;99.90;;;;;;4967756;28;20109;-72
2020/12/09 03:00:05;;;;;;;94.90;41.60;;;2.70;99.90;;;;;;4984625;28;20132;-72
2020/12/09 03:02:31;;;;;;;97.75;43.05;;;2.70;99.90;;;;;;4985333;28;20042;-72
2020/12/09 03:04:56;;;;;;;102.38;42.92;;;2.70;99.90;;;;;;4980144;28;20170;-72
2020/12/09 03:07:22;;;;;;;93.95;41.42;;;2.70;99.90;;;;;;4978885;28;20130;-72
2020/12/09 03:09:48;;;;;;;101.03;42.75;;;2.80;99.90;;;;;;4984603;28;20061;-72
2020/12/09 03:12:14;;;;;;;103.50;44.03;;;2.80;99.90;;;;;;4984648;28;20133;-72
2020/12/09 03:14:39;;;;;;;95.97;41.58;;;2.70;99.90;;;;;;4984796;28;20026;-72
2020/12/09 03:17:05;;;;;;;99.25;43.55;;;2.80;99.90;;;;;;4982703;28;20800;-72
2020/12/09 03:19:30;;;;;;;97.72;42.47;;;2.80;99.90;;;;;;4984262;28;20038;-71
2020/12/09 03:21:56;;;;;;;95.32;39.95;;;2.80;99.90;;;;;;4983060;28;20665;-72
2020/12/09 03:24:22;;;;;;;106.40;43.33;;;2.70;99.90;;;;;;4983200;28;20057;-72
2020/12/09 03:26:47;;;;;;;95.80;40.67;;;2.70;99.90;;;;;;4983196;28;20096;-72
2020/12/09 03:29:13;;;;;;;102.13;44.88;;;2.80;99.90;;;;;;4983315;28;20034;-71
2020/12/09 03:31:39;;;;;;;101.88;44.65;;;2.80;99.90;;;;;;4984092;28;20105;-72
2020/12/09 03:34:05;;;;;;;91.68;41.35;;;2.80;99.90;;;;;;4983792;28;20049;-72
2020/12/09 03:36:30;;;;;;;106.43;42.40;;;2.80;99.90;;;;;;4983539;28;20033;-72
2020/12/09 03:38:56;;;;;;;103.18;43.88;;;2.70;99.90;;;;;;4983640;28;20701;-71
2020/12/09 03:41:22;;;;;;;104.47;42.92;;;2.70;99.90;;;;;;4979054;28;20414;-74
2020/12/09 03:43:47;;;;;;;101.47;42.22;;;2.70;99.90;;;;;;4980282;28;20040;-71
2020/12/09 03:46:13;;;;;;;105.28;43.63;;;2.70;99.90;;;;;;4984310;28;20840;-72
2020/12/09 03:48:39;;;;;;;99.57;42.90;;;2.80;99.90;;;;;;4984258;28;20028;-71
2020/12/09 03:51:04;;;;;;;98.55;41.60;;;2.80;99.90;;;;;;4983210;28;20046;-71
2020/12/09 03:53:32;;;;;;;99.30;41.42;;;2.70;99.90;;;;;;4982904;28;20113;-71
2020/12/09 03:55:59;;;;;;;93.13;42.28;;;2.80;99.90;;;;;;4984374;28;20033;-72
2020/12/09 03:58:24;;;;;;;99.40;43.97;;;2.80;99.90;;;;;;4983384;28;20457;-72
2020/12/09 04:00:50;;;;;;;101.88;42.45;;;2.80;99.90;;;;;;4984027;28;20138;-71
2020/12/09 04:03:16;;;;;;;101.18;42.10;;;2.90;99.90;;;;;;4982908;28;20813;-72
2020/12/09 04:05:41;;;;;;;104.03;43.40;;;2.90;99.90;;;;;;4984108;28;20542;-72
2020/12/09 04:08:07;;;;;;;108.28;43.63;;;2.80;99.90;;;;;;4984782;28;20042;-72
2020/12/09 04:10:33;;;;;;;107.10;44.00;;;2.80;99.90;;;;;;4984696;28;20116;-71
2020/12/09 04:12:58;;;;;;;106.85;43.28;;;2.80;99.90;;;;;;4984798;28;20126;-72
2020/12/09 04:15:24;;;;;;;105.40;43.50;;;2.80;99.90;;;;;;4984811;28;20822;-72
2020/12/09 04:17:50;;;;;;;101.53;43.22;;;2.80;99.90;;;;;;4984032;28;20026;-72
2020/12/09 04:20:16;;;;;;;103.72;42.38;;;2.80;99.90;;;;;;4982592;28;20831;-71
2020/12/09 04:22:41;;;;;;;112.35;45.90;;;2.80;99.90;;;;;;4984969;28;20026;-71
2020/12/09 04:25:07;;;;;;;109.78;44.35;;;2.80;99.90;;;;;;4985034;28;20656;-72
2020/12/09 04:27:33;;;;;;;97.10;42.67;;;2.80;99.90;;;;;;4984043;28;20030;-72
2020/12/09 04:29:58;;;;;;;105.47;43.70;;;2.80;99.90;;;;;;4983635;28;20034;-72
2020/12/09 04:32:24;;;;;;;103.18;43.30;;;2.70;99.90;;;;;;4983779;28;20173;-71
2020/12/09 04:34:52;;;;;;;102.03;44.03;;;2.80;99.90;;;;;;4980880;28;20068;-71
2020/12/09 04:37:20;;;;;;;101.28;42.95;;;2.80;99.90;;;;;;4981801;28;20050;-72
2020/12/09 04:39:46;;;;;;;103.43;43.90;;;2.80;99.90;;;;;;4982611;28;20053;-72
2020/12/09 04:42:17;;;;;;;100.40;43.30;;;2.90;99.90;;;;;;4982949;28;20038;-71
2020/12/09 04:44:44;;;;;;;102.78;44.17;;;2.90;99.90;;;;;;4982807;28;20045;-72
2020/12/09 04:47:38;;;;;;;107.30;45.30;;;2.80;99.90;;;;;;4980763;28;20490;-73
2020/12/09 04:50:07;;;;;;;108.95;45.97;;;2.80;99.90;;;;;;4978767;28;20793;-71
2020/12/09 04:52:47;;;;;;;107.00;45.25;;;2.80;99.90;;;;;;4982843;28;20509;-71
2020/12/09 04:55:16;;;;;;;110.32;43.97;;;2.70;99.90;;;;;;4983203;28;20041;-71
2020/12/09 04:57:50;;;;;;;107.97;44.67;;;2.70;99.90;;;;;;4982480;28;20030;-71
2020/12/09 05:00:16;;;;;;;108.90;44.63;;;2.80;99.90;;;;;;4981361;28;20038;-71
2020/12/09 05:02:48;;;;;;;104.53;43.80;;;2.80;99.90;;;;;;4983389;28;20065;-71
2020/12/09 05:05:19;;;;;;;101.93;45.22;;;2.80;99.90;;;;;;4980918;28;20408;-71
2020/12/09 05:07:50;;;;;;;109.95;45.42;;;2.70;99.90;;;;;;4983188;28;20518;-71
2020/12/09 05:10:18;;;;;;;109.78;45.92;;;2.80;99.90;;;;;;4980829;28;20034;-70
2020/12/09 05:12:49;;;;;;;115.20;46.03;;;2.70;99.90;;;;;;4976882;28;20022;-70
2020/12/09 05:15:21;;;;;;;109.35;44.53;;;2.70;99.90;;;;;;4982870;28;20038;-70
2020/12/09 05:18:00;;;;;;;106.47;43.50;;;2.70;99.90;;;;;;4982507;28;20104;-70
2020/12/09 05:20:34;;;;;;;116.82;46.95;;;2.70;99.90;;;;;;4982623;28;20694;-69
2020/12/09 05:23:00;;;;;;;111.70;46.47;;;2.80;99.90;;;;;;4982280;28;20045;-69
2020/12/09 05:25:27;;;;;;;110.70;45.58;;;2.70;99.90;;;;;;4981056;28;20041;-69
2020/12/09 05:27:54;;;;;;;121.55;47.60;;;2.70;99.90;;;;;;4978308;28;20451;-69
2020/12/09 05:30:46;;;;;;;110.47;44.70;;;2.70;99.90;;;;;;4973799;28;20044;-67
2020/12/09 05:33:14;;;;;;;120.78;47.67;;;2.60;99.90;;;;;;4982404;28;20513;-68
2020/12/09 05:35:40;;;;;;;116.13;49.15;;;2.60;99.90;;;;;;4980672;28;20042;-68
2020/12/09 05:38:15;;;;;;;109.10;47.58;;;2.60;99.90;;;;;;4982379;28;20125;-71
2020/12/09 05:40:42;;;;;;;117.25;47.10;;;2.60;99.90;;;;;;4980398;28;20042;-71
2020/12/09 05:43:08;;;;;;;111.82;46.05;;;2.60;99.90;;;;;;4974736;28;20433;-71
2020/12/09 05:45:34;;;;;;;108.05;45.88;;;2.60;99.90;;;;;;4981945;28;20042;-69
2020/12/09 05:48:15;;;;;;;115.22;46.72;;;2.60;99.90;;;;;;4980738;28;20113;-69
2020/12/09 05:50:48;;;;;;;109.88;46.67;;;2.60;99.90;;;;;;4978799;28;20092;-69
2020/12/09 05:53:28;;;;;;;108.85;44.95;;;2.60;99.90;;;;;;4982287;28;20032;-69
2020/12/09 05:56:12;;;;;;;116.20;45.72;;;2.60;99.90;;;;;;4980581;28;20038;-69
2020/12/09 05:58:45;;;;;;;109.03;44.88;;;2.60;99.90;;;;;;4981951;28;20121;-69
2020/12/09 06:01:16;;;;;;;108.00;45.22;;;2.60;99.90;;;;;;4981644;28;20080;-69
2020/12/09 06:03:56;;;;;;;122.55;50.28;;;2.50;99.90;;;;;;4979255;28;20030;-70
2020/12/09 06:06:29;;;;;;;124.60;52.08;;;2.50;99.90;;;;;;4979702;28;20064;-70
2020/12/09 06:09:00;;;;;;;118.95;49.97;;;2.50;99.90;;;;;;4980765;28;20125;-70
2020/12/09 06:11:33;;;;;;;106.45;44.97;;;2.60;99.90;;;;;;4981051;28;20027;-70
2020/12/09 06:14:00;;;;;;;110.60;43.58;;;2.50;99.90;;;;;;4972307;28;20670;-69
2020/12/09 06:16:26;;;;;;;104.82;44.65;;;2.60;99.90;;;;;;4967982;28;20147;-69
2020/12/09 06:18:53;;;;;;;112.20;46.20;;;2.60;99.90;;;;;;4982540;28;20034;-69
2020/12/09 06:21:23;;;;;;;118.07;47.17;;;2.60;99.90;;;;;;4984637;28;20116;-69
2020/12/09 06:23:52;;;;;;;110.28;45.50;;;2.50;99.90;;;;;;4969623;28;20050;-71
2020/12/09 06:26:18;;;;;;;115.20;47.22;;;2.50;99.90;;;;;;4975496;28;20045;-69
2020/12/09 06:28:45;;;;;;;105.30;44.50;;;2.50;99.90;;;;;;4985652;28;20478;-69
2020/12/09 06:31:17;;;;;;;117.38;47.28;;;2.50;99.90;;;;;;4983061;28;20505;-69
2020/12/09 06:33:44;;;;;;;111.03;46.88;;;2.50;99.90;;;;;;4976955;28;20041;-69
2020/12/09 06:36:20;;;;;;;115.47;45.75;;;2.50;99.90;;;;;;4981969;28;20043;-69
2020/12/09 06:39:05;;;;;;;113.32;46.47;;;2.50;99.90;;;;;;4983118;28;20153;-69
2020/12/09 06:41:44;;;;;;;119.38;49.45;;;2.60;99.90;;;;;;4977819;28;20522;-69
2020/12/09 06:44:16;;;;;;;120.10;47.88;;;2.50;99.90;;;;;;4984101;28;20045;-69
2020/12/09 06:46:46;;;;;;;120.72;47.20;;;2.50;99.90;;;;;;4980081;28;20041;-69
2020/12/09 06:49:27;;;;;;;114.70;46.70;;;2.50;99.90;;;;;;4972148;28;20038;-69
2020/12/09 06:51:56;;;;;;;113.10;46.22;;;2.50;99.90;;;;;;4973311;28;20798;-69
2020/12/09 06:54:41;;;;;;;119.82;47.90;;;2.50;99.90;;;;;;4977089;28;20034;-69
2020/12/09 06:57:37;;;;;;;121.00;47.77;;;2.60;99.90;;;;;;4975801;28;20125;-71
2020/12/09 07:00:06;;;;;;;;;;;2.60;99.90;;;;;;4983196;28;20264;-70
2020/12/09 07:02:32;;;;;;;121.00;47.70;;;2.60;99.90;;;;;;4984001;28;19917;-70
2020/12/09 07:04:58;;;;;;;135.07;53.08;;;2.60;99.90;;;;;;4976264;28;20112;-70
2020/12/09 07:07:51;;;;;;;118.60;48.63;;;2.50;99.90;;;;;;4984338;28;20442;-70
2020/12/09 07:10:20;;;;;;;126.30;48.90;;;2.50;99.90;;;;;;4982349;28;20026;-73
2020/12/09 07:12:47;;;;;;;121.53;50.78;;;2.50;99.90;;;;;;4975823;28;20038;-70
2020/12/09 07:15:13;;;;;;;121.72;49.85;;;2.50;99.90;;;;;;4981307;28;20039;-70
2020/12/09 07:17:39;;;;;;;120.47;49.10;;;2.50;99.90;;;;;;4977336;28;20125;-69
2020/12/09 07:20:05;;;;;;;128.60;47.67;;;2.60;99.90;;;;;;4983153;28;20164;-70
2020/12/09 07:22:31;;;;;;;114.28;48.17;;;2.50;99.90;;;;;;4975349;28;20030;-70
2020/12/09 07:24:57;;;;;;;117.00;49.67;;;2.50;99.90;;;;;;4982177;28;20573;-70
2020/12/09 07:27:25;;;;;;;114.47;48.83;;;2.50;99.90;;;;;;4980884;28;20037;-69
2020/12/09 07:29:54;;;;;;;126.22;49.72;;;2.60;99.90;;;;;;4967420;28;20055;-70
2020/12/09 07:32:22;;;;;;;125.57;49.78;;;2.60;99.90;;;;;;4982698;28;20049;-70
2020/12/09 07:34:59;;;;;;;122.72;50.00;;;2.50;99.90;;;;;;4975925;28;20039;-70
2020/12/09 07:37:27;;;;;;;115.10;48.30;;;2.50;99.90;;;;;;4975974;28;20037;-70
2020/12/09 07:39:54;;;;;;;128.65;51.40;;;2.60;99.90;;;;;;4982952;28;20038;-70
2020/12/09 07:42:22;;;;;;;127.35;50.92;;;2.50;99.90;;;;;;4981834;28;20038;-70
2020/12/09 07:44:50;;;;;;;121.30;49.65;;;2.50;99.90;;;;;;4982824;28;20096;-69
2020/12/09 07:47:26;;;;;;;120.07;49.80;;;2.40;99.90;;;;;;4974696;28;20034;-70
2020/12/09 07:50:03;;;;;;;128.02;51.35;;;2.40;99.90;;;;;;4975311;28;20684;-70
2020/12/09 07:52:30;;;;;;;126.07;51.08;;;2.40;99.90;;;;;;4982059;28;20042;-70
2020/12/09 07:55:01;;;;;;;135.80;53.05;;;2.50;99.90;;;;;;4982734;28;20033;-70
2020/12/09 07:57:32;;;;;;;124.25;52.80;;;2.50;99.90;;;;;;4975900;28;20395;-70
2020/12/09 07:59:59;;;;;;;133.25;51.22;;;2.50;99.90;;;;;;4981648;28;20049;-70
2020/12/09 08:02:28;;;;;;;123.10;51.63;;;2.50;99.90;;;;;;4973941;28;20038;-70
2020/12/09 08:05:15;;;;;;;131.55;52.28;;;2.50;99.90;;;;;;4983147;28;20030;-69
2020/12/09 08:07:57;;;;;;;117.80;50.08;;;2.50;99.90;;;;;;4977133;28;20114;-69
2020/12/09 08:10:23;;;;;;;127.22;50.55;;;2.50;99.90;;;;;;4974610;28;20042;-69
2020/12/09 08:12:49;;;;;;;120.13;50.45;;;2.50;99.90;;;;;;4983322;28;20478;-69
2020/12/09 08:15:15;;;;;;;128.10;52.10;;;2.50;99.90;;;;;;4982953;28;20506;-69
2020/12/09 08:17:47;;;;;;;123.88;50.65;;;2.50;99.90;;;;;;4978136;28;20134;-69
2020/12/09 08:20:17;;;;;;;127.60;51.03;;;2.50;99.90;;;;;;4974132;28;20552;-71
2020/12/09 08:23:09;;;;;;;122.78;50.85;;;2.60;99.90;;;;;;4983175;28;20076;-69
2020/12/09 08:26:01;;;;;;;129.35;51.42;;;2.50;99.90;;;;;;4978880;28;20366;-69
2020/12/09 08:28:27;;;;;;;130.68;50.90;;;2.60;99.90;;;;;;4976798;28;20030;-70
2020/12/09 08:30:53;;;;;;;119.82;49.38;;;2.60;99.90;;;;;;4983503;28;20033;-69
2020/12/09 08:33:22;;;;;;;130.00;50.53;;;2.60;99.90;;;;;;4974561;28;20133;-69
2020/12/09 08:35:52;;;;;;;114.93;48.92;;;2.60;99.90;;;;;;4983318;28;20605;-69
2020/12/09 08:38:36;;;;;;;127.70;50.25;;;2.70;99.90;;;;;;4980909;28;20038;-69
2020/12/09 08:41:06;;;;;;;113.68;47.78;;;2.60;99.90;;;;;;4980962;28;20069;-69
2020/12/09 08:43:34;;;;;;;112.15;48.22;;;2.60;99.90;;;;;;4971247;28;20768;-70
2020/12/09 08:46:01;;;;;;;122.28;50.08;;;2.60;99.90;;;;;;4977490;28;20034;-70
2020/12/09 08:48:28;;;;;;;128.68;52.13;;;2.70;99.90;;;;;;4981962;28;20050;-70
2020/12/09 08:50:54;;;;;;;116.68;46.90;;;2.60;99.90;;;;;;4981058;28;20026;-70
2020/12/09 08:53:20;;;;;;;122.70;49.67;;;2.60;99.90;;;;;;4965394;28;20894;-70
2020/12/09 08:55:47;;;;;;;120.00;46.80;;;2.60;99.90;;;;;;4981265;28;20113;-70
2020/12/09 08:58:14;;;;;;;118.13;49.90;;;2.70;99.90;;;;;;4978736;28;20038;-69
2020/12/09 09:00:41;;;;;;;119.47;48.83;;;2.80;99.90;;;;;;4976355;28;20703;-72
2020/12/09 09:03:13;;;;;;;121.65;50.28;;;2.80;99.90;;;;;;4981333;28;20030;-71
2020/12/09 09:05:41;;;;;;;114.80;49.05;;;2.80;99.90;;;;;;4975990;28;20031;-71
2020/12/09 09:08:08;;;;;;;113.18;47.60;;;2.70;99.90;;;;;;4962298;28;20038;-70
2020/12/09 09:10:34;;;;;;;119.15;48.97;;;2.70;99.90;;;;;;4980382;28;20041;-70
2020/12/09 09:13:00;;;;;;;117.03;49.35;;;2.70;99.90;;;;;;4977684;28;20066;-70
2020/12/09 09:15:26;;;;;;;113.45;48.83;;;2.70;99.90;;;;;;4981994;28;20837;-70
2020/12/09 09:17:51;;;;;;;111.18;47.33;;;2.70;99.90;;;;;;4973980;28;20038;-70
2020/12/09 09:20:17;;;;;;;112.90;48.22;;;2.70;99.90;;;;;;4981197;28;20061;-69
2020/12/09 09:22:43;;;;;;;115.50;49.35;;;2.80;99.90;;;;;;4982167;28;20037;-70
2020/12/09 09:25:09;;;;;;;115.20;49.70;;;2.80;99.90;;;;;;4981204;28;20041;-70
2020/12/09 09:27:35;;;;;;;113.95;48.30;;;2.80;99.90;;;;;;4981479;28;20039;-70
2020/12/09 09:30:01;;;;;;;112.30;47.42;;;2.80;99.90;;;;;;4973418;28;20082;-70
2020/12/09 09:32:27;;;;;;;118.45;49.10;;;2.70;99.90;;;;;;4979436;28;20038;-68
2020/12/09 09:34:53;;;;;;;115.97;48.38;;;2.70;99.90;;;;;;4981388;28;20034;-69
2020/12/09 09:37:21;;;;;;;112.70;47.22;;;2.70;99.90;;;;;;4981486;28;20049;-71
2020/12/09 09:39:51;;;;;;;115.50;49.03;;;2.60;99.90;;;;;;4980683;28;20038;-69
2020/12/09 09:42:18;;;;;;;111.05;48.05;;;2.70;99.90;;;;;;4981594;28;20605;-70
2020/12/09 09:44:45;;;;;;;117.82;47.60;;;2.70;99.90;;;;;;4972930;28;20049;-70
2020/12/09 09:47:11;;;;;;;117.70;49.95;;;2.70;99.90;;;;;;4980807;28;20049;-70
2020/12/09 09:49:37;;;;;;;124.72;49.45;;;2.70;99.90;;;;;;4981184;28;20029;-69
2020/12/09 09:52:02;;;;;;;118.43;48.95;;;2.70;99.90;;;;;;4980161;28;20039;-69
2020/12/09 09:54:28;;;;;;;114.88;48.90;;;2.60;99.90;;;;;;4980812;28;20046;-70
2020/12/09 09:56:54;;;;;;;118.50;47.88;;;2.60;99.90;;;;;;4979179;28;20129;-70
2020/12/09 09:59:19;;;;;;;114.20;48.17;;;2.60;99.90;;;;;;4979304;28;20046;-69
2020/12/09 10:01:45;;;;;;;120.05;50.20;;;2.80;99.90;;;;;;4980626;28;20073;-69
2020/12/09 10:04:11;;;;;;;119.70;49.08;;;2.80;99.90;;;;;;4971404;28;20041;-69
2020/12/09 10:06:37;;;;;;;115.20;48.08;;;2.90;99.90;;;;;;4985287;28;20026;-69
2020/12/09 10:09:05;;;;;;;108.78;47.15;;;2.90;99.90;;;;;;4978621;28;20038;-70
2020/12/09 10:11:34;;;;;;;109.05;46.20;;;2.90;99.90;;;;;;4972227;28;20030;-70
2020/12/09 10:14:00;;;;;;;121.25;49.55;;;2.80;99.90;;;;;;4977393;28;20041;-70
2020/12/09 10:16:27;;;;;;;121.13;48.10;;;2.70;99.90;;;;;;4967456;28;20051;-70
2020/12/09 10:18:54;;;;;;;116.40;47.95;;;2.70;99.90;;;;;;4959840;28;20033;-70
2020/12/09 10:21:39;;;;;;;116.40;47.70;;;2.70;99.90;;;;;;4963983;28;20037;-69
2020/12/09 10:24:06;;;;;;;121.95;48.00;;;2.80;99.90;;;;;;4962339;28;20066;-67
2020/12/09 10:26:39;;;;;;;116.43;48.30;;;2.80;99.90;;;;;;4980100;28;20114;-67
2020/12/09 10:29:09;;;;;;;120.35;48.88;;;2.70;99.90;;;;;;4970820;28;20038;-69
2020/12/09 10:31:44;;;;;;;117.75;46.95;;;2.70;99.90;;;;;;4974458;28;20088;-70
2020/12/09 10:34:11;;;;;;;119.15;48.10;;;2.80;99.90;;;;;;4962013;28;20350;-71
2020/12/09 10:36:38;;;;;;;237.60;98.85;;;2.70;99.90;;;;;;4962515;28;20034;-71
2020/12/09 10:39:06;;;;;;;118.13;45.88;;;2.70;99.90;;;;;;4977794;28;20030;-71
2020/12/09 10:41:33;;;;;;;119.82;48.53;;;2.80;99.90;;;;;;4975396;28;20042;-75
2020/12/09 10:44:00;;;;;;;112.95;47.90;;;2.80;99.90;;;;;;4971885;28;20038;-70
2020/12/09 10:46:34;;;;;;;112.40;46.17;;;2.80;99.90;;;;;;4975769;28;20454;-70
2020/12/09 10:49:04;;;;;;;115.05;46.67;;;2.90;99.90;;;;;;4971575;28;20034;-70
2020/12/09 10:51:31;;;;;;;121.93;47.97;;;2.90;99.90;;;;;;4974148;28;20019;-70
2020/12/09 10:53:57;;;;;;;113.60;46.45;;;3.00;99.90;;;;;;4973249;28;20105;-70
2020/12/09 10:56:31;;;;;;;109.82;46.25;;;2.90;99.90;;;;;;4969757;28;20778;-69
2020/12/09 10:59:02;;;;;;;113.95;46.78;;;2.90;99.90;;;;;;4970764;28;20038;-70
2020/12/09 11:01:30;;;;;;;107.55;46.45;;;3.00;99.90;;;;;;4972529;28;20035;-70
2020/12/09 11:03:56;;;;;;;114.97;45.95;;;3.00;99.90;;;;;;4980014;28;20803;-71
2020/12/09 11:06:30;;;;;;;107.00;46.22;;;3.00;99.90;;;;;;4983390;28;20031;-71
2020/12/09 11:08:56;;;;;;;106.57;45.05;;;3.00;99.90;;;;;;4974525;28;20041;-71
2020/12/09 11:11:23;;;;;;;102.93;45.03;;;3.00;99.90;;;;;;4982866;28;20670;-70
2020/12/09 11:13:49;;;;;;;112.88;47.03;;;3.10;99.90;;;;;;4983456;28;20041;-70
2020/12/09 11:16:16;;;;;;;122.47;46.58;;;3.00;99.90;;;;;;4982397;28;20097;-70
2020/12/09 11:18:42;;;;;;;111.30;46.50;;;3.00;99.90;;;;;;4976723;28;20078;-71
2020/12/09 11:21:09;;;;;;;121.60;51.72;;;3.10;99.90;;;;;;4981153;28;20045;-71
2020/12/09 11:23:34;;;;;;;107.43;45.20;;;3.20;99.90;;;;;;4982374;28;20030;-71
2020/12/09 11:26:00;;;;;;;107.95;45.65;;;3.20;99.90;;;;;;4983247;28;20026;-69
2020/12/09 11:28:26;;;;;;;103.13;43.30;;;3.20;99.90;;;;;;4982682;28;20034;-70
2020/12/09 11:30:52;;;;;;;107.55;45.80;;;3.10;99.90;;;;;;4982669;28;20058;-70
2020/12/09 11:33:17;;;;;;;104.50;44.67;;;3.10;99.90;;;;;;4981255;28;20035;-68
2020/12/09 11:35:43;;;;;;;111.90;45.92;;;3.10;99.90;;;;;;4982221;28;20124;-69
2020/12/09 11:38:11;;;;;;;109.15;44.38;;;3.20;99.90;;;;;;4983389;28;20026;-69
2020/12/09 11:40:38;;;;;;;112.53;47.22;;;3.30;99.90;;;;;;4964961;28;20045;-69
2020/12/09 11:43:04;;;;;;;103.05;45.60;;;3.20;99.90;;;;;;4965398;28;20445;-71
2020/12/09 11:45:31;;;;;;;110.35;47.00;;;3.30;99.90;;;;;;4982721;28;20041;-71
2020/12/09 11:47:57;;;;;;;159.90;64.07;;;3.30;99.90;;;;;;4961880;28;20395;-71
2020/12/09 11:50:23;;;;;;;109.38;45.10;;;3.30;99.90;;;;;;4975194;28;20033;-70
2020/12/09 11:52:49;;;;;;;110.65;45.10;;;3.20;99.90;;;;;;4980658;28;20088;-70
2020/12/09 11:55:15;;;;;;;111.60;44.70;;;3.10;99.90;;;;;;4982874;28;20490;-70
2020/12/09 11:57:40;;;;;;;110.38;43.85;;;3.10;99.90;;;;;;4982397;28;20049;-70
2020/12/09 12:00:07;;;;;;;113.32;47.83;;;3.00;99.90;;;;;;4981541;28;20084;-70
2020/12/09 12:02:32;;;;;;;118.25;47.65;;;3.10;99.90;;;;;;4981598;28;20482;-70
2020/12/09 12:05:00;;;;;;;110.53;45.08;;;3.20;99.90;;;;;;4982909;28;20088;-70
2020/12/09 12:07:26;;;;;;;104.93;44.38;;;3.20;99.90;;;;;;4982232;28;20038;-70
2020/12/09 12:09:52;;;;;;;109.43;45.17;;;3.20;99.90;;;;;;4982281;28;20031;-71
2020/12/09 12:12:17;;;;;;;111.93;45.90;;;3.20;99.90;;;;;;4980813;28;20037;-69
2020/12/09 12:14:43;;;;;;;109.80;45.95;;;3.10;99.90;;;;;;4981662;28;20108;-70
2020/12/09 12:17:11;;;;;;;107.85;45.05;;;3.20;99.90;;;;;;4974453;28;20031;-69
2020/12/09 12:19:37;;;;;;;105.78;44.70;;;3.20;99.90;;;;;;4980247;28;20562;-70
2020/12/09 12:22:04;;;;;;;121.82;47.00;;;3.20;99.90;;;;;;4979923;28;20479;-69
2020/12/09 12:24:30;;;;;;;103.22;44.28;;;3.20;99.90;;;;;;4973951;28;20442;-69
2020/12/09 12:26:55;;;;;;;109.57;46.75;;;3.30;99.90;;;;;;4982175;28;20101;-69
2020/12/09 12:29:21;;;;;;;102.25;43.97;;;3.30;99.90;;;;;;4981528;28;20478;-70
2020/12/09 12:31:47;;;;;;;107.78;45.45;;;3.20;99.90;;;;;;4981716;28;20042;-69
2020/12/09 12:34:12;;;;;;;119.55;47.47;;;3.30;99.90;;;;;;4979155;28;20022;-71
2020/12/09 12:36:39;;;;;;;110.55;46.72;;;3.30;99.90;;;;;;4975321;28;20752;-69